Time;durP1;ratioP1;P1;durP2;ratioP2;P2;SDS_P1;SDS_P2;PMS_P1;PMS_P2;Temp;Humidity;BMP_temperature;BMP_pressure;BME280_temperature;BME280_humidity;BME280_pressure;Samples;Min_cycle;Max_cycle;Signal;HPM_P1;HPM_P2
2023/03/06 00:02:04;;;;;;;10.73;9.82;;;;;;;4.78;50.49;94334.50;5120199;27;20226;-72
2023/03/06 00:04:31;;;;;;;10.98;9.98;;;;;;;4.77;51.10;94339.16;5119580;27;20202;-72
2023/03/06 00:06:57;;;;;;;11.32;10.23;;;;;;;4.78;50.88;94340.75;5120127;27;20206;-72
2023/03/06 00:09:24;;;;;;;11.10;10.07;;;;;;;4.75;51.13;94333.22;5120286;27;20222;-72
2023/03/06 00:11:51;;;;;;;10.75;9.85;;;;;;;4.76;51.09;94334.03;5119964;27;20213;-72
2023/03/06 00:14:19;;;;;;;11.15;10.10;;;;;;;4.77;50.98;94338.38;5120104;27;20276;-72
2023/03/06 00:16:46;;;;;;;10.02;9.10;;;;;;;4.76;51.00;94331.31;5137723;27;20175;-72
2023/03/06 00:19:13;;;;;;;10.20;9.40;;;;;;;4.74;51.18;94334.38;5137735;27;20175;-73
2023/03/06 00:21:40;;;;;;;10.95;9.95;;;;;;;4.75;51.16;94332.44;5119938;27;20191;-72
2023/03/06 00:24:07;;;;;;;10.40;9.40;;;;;;;4.72;51.07;94336.66;5119879;27;20195;-72
2023/03/06 00:26:34;;;;;;;10.65;9.65;;;;;;;4.68;51.16;94332.97;5119330;27;20194;-72
2023/03/06 00:29:01;;;;;;;10.50;9.50;;;;;;;4.70;51.53;94338.91;5119058;27;20194;-72
2023/03/06 00:31:29;;;;;;;10.88;9.82;;;;;;;4.63;51.00;94332.38;5119324;27;20192;-72
2023/03/06 00:33:56;;;;;;;10.55;9.55;;;;;;;4.61;51.42;94335.41;5137117;27;20194;-72
2023/03/06 00:36:23;;;;;;;11.05;10.10;;;;;;;4.64;51.55;94336.69;5137411;27;20194;-72
2023/03/06 00:38:50;;;;;;;10.85;9.75;;;;;;;4.63;51.29;94333.16;5119259;27;20191;-72
2023/03/06 00:41:17;;;;;;;11.15;10.05;;;;;;;4.65;51.68;94324.63;5119034;27;20239;-72
2023/03/06 00:43:44;;;;;;;11.07;10.05;;;;;;;4.69;51.30;94325.59;5118968;27;20621;-72
2023/03/06 00:46:11;;;;;;;10.88;9.88;;;;;;;4.75;51.46;94321.50;5119198;27;20210;-72
2023/03/06 00:48:39;;;;;;;10.88;9.88;;;;;;;4.79;51.19;94325.16;5119131;27;20268;-72
2023/03/06 00:51:06;;;;;;;10.27;9.30;;;;;;;4.78;51.20;94321.63;5136974;27;20214;-72
2023/03/06 00:53:33;;;;;;;10.90;9.80;;;;;;;4.79;51.09;94325.97;5119212;27;20255;-72
2023/03/06 00:56:00;;;;;;;10.57;9.68;;;;;;;4.78;51.10;94326.31;5119434;27;20203;-72
2023/03/06 00:58:27;;;;;;;10.57;9.57;;;;;;;4.79;50.92;94323.25;5118824;27;20195;-71
2023/03/06 01:00:54;;;;;;;10.70;9.70;;;;;;;4.79;50.88;94323.25;5119004;27;20191;-71
2023/03/06 01:03:20;;;;;;;9.80;9.00;;;;;;;4.79;50.85;94315.06;5136622;27;20179;-72
2023/03/06 01:05:49;;;;;;;10.57;9.65;;;;;;;4.82;51.04;94319.03;5118821;27;20179;-72
2023/03/06 01:08:15;;;;;;;11.07;10.07;;;;;;;4.85;50.73;94310.16;5137088;27;20190;-72
2023/03/06 01:10:43;;;;;;;10.75;9.75;;;;;;;4.87;50.83;94307.91;5136736;27;20234;-72
2023/03/06 01:13:10;;;;;;;11.52;10.50;;;;;;;4.90;50.62;94312.72;5136859;27;20191;-72
2023/03/06 01:15:37;;;;;;;10.75;9.75;;;;;;;4.87;50.36;94310.66;5118184;27;20199;-71
2023/03/06 01:18:04;;;;;;;11.45;10.38;;;;;;;4.90;50.38;94309.97;5136661;27;20512;-72
2023/03/06 01:20:31;;;;;;;11.05;10.05;;;;;;;4.89;50.08;94305.63;5136341;27;20224;-72
2023/03/06 01:22:59;;;;;;;10.48;9.57;;;;;;;4.88;50.31;94312.22;5118219;27;20209;-72
2023/03/06 01:25:26;;;;;;;10.95;9.85;;;;;;;4.89;50.42;94302.91;5136397;27;20198;-72
2023/03/06 01:27:53;;;;;;;11.15;10.25;;;;;;;4.93;49.72;94311.22;5118301;27;20202;-72
2023/03/06 01:30:20;;;;;;;11.10;10.00;;;;;;;4.94;50.51;94310.06;5118619;27;20215;-72
2023/03/06 01:32:47;;;;;;;10.70;9.60;;;;;;;4.94;50.09;94310.91;5117993;27;20650;-72
2023/03/06 01:35:14;;;;;;;11.35;10.35;;;;;;;4.96;50.58;94305.09;5119072;27;20252;-71
2023/03/06 01:37:41;;;;;;;11.18;10.07;;;;;;;4.97;50.30;94303.94;5118371;27;20203;-71
2023/03/06 01:40:12;;;;;;;11.10;10.18;;;;;;;4.97;50.35;94302.00;5136533;27;20263;-71
2023/03/06 01:42:39;;;;;;;10.85;9.90;;;;;;;4.96;50.36;94307.81;5136376;27;20222;-71
2023/03/06 01:45:28;;;;;;;11.57;10.40;;;;;;;4.93;50.39;94309.28;5136634;27;20218;-71
2023/03/06 01:47:55;;;;;;;11.50;10.50;;;;;;;4.89;50.38;94297.44;5136536;27;20276;-71
2023/03/06 01:50:22;;;;;;;11.27;10.18;;;;;;;4.82;50.75;94295.22;5136327;27;20225;-71
2023/03/06 01:52:52;;;;;;;11.52;10.43;;;;;;;4.83;51.10;94294.13;5118024;27;20202;-71
2023/03/06 01:55:23;;;;;;;11.70;10.55;;;;;;;4.84;50.84;94294.91;5136323;27;20195;-72
2023/03/06 01:57:51;;;;;;;12.32;11.13;;;;;;;4.83;50.70;94296.06;5136267;28;20186;-72
2023/03/06 02:00:20;;;;;;;12.10;10.70;;;;;;;4.81;50.86;94293.66;5118164;28;20203;-72
2023/03/06 02:02:50;;;;;;;11.40;10.30;;;;;;;4.82;50.66;94306.16;5135860;28;20171;-72
2023/03/06 02:05:17;;;;;;;11.45;10.35;;;;;;;4.81;50.68;94295.59;5136205;28;20512;-72
2023/03/06 02:07:44;;;;;;;11.38;10.27;;;;;;;4.82;50.60;94295.22;5118344;28;20187;-72
2023/03/06 02:10:12;;;;;;;11.35;10.23;;;;;;;4.80;50.81;94289.31;5117872;28;20218;-72
2023/03/06 02:12:42;;;;;;;12.02;10.85;;;;;;;4.81;50.69;94296.38;5118070;28;20194;-72
2023/03/06 02:15:10;;;;;;;11.60;10.50;;;;;;;4.80;50.98;94296.72;5135847;28;20626;-72
2023/03/06 02:17:37;;;;;;;11.70;10.60;;;;;;;4.74;50.71;94298.84;5135953;28;20187;-72
2023/03/06 02:20:08;;;;;;;10.70;9.70;;;;;;;4.70;51.04;94299.84;5135781;28;20191;-72
2023/03/06 02:22:40;;;;;;;11.52;10.40;;;;;;;4.68;51.14;94300.19;5135996;28;20194;-72
2023/03/06 02:25:10;;;;;;;11.85;10.63;;;;;;;4.69;51.13;94298.28;5135765;28;20240;-71
2023/03/06 02:27:38;;;;;;;11.55;10.50;;;;;;;4.67;50.97;94293.13;5119890;27;20195;-71
2023/03/06 02:30:07;;;;;;;11.50;10.40;;;;;;;4.66;50.93;94299.72;5122026;27;20215;-71
2023/03/06 02:32:34;;;;;;;11.88;10.52;;;;;;;4.65;50.71;94300.03;5121934;27;20202;-71
2023/03/06 02:35:00;;;;;;;11.93;10.77;;;;;;;4.64;50.55;94306.66;5139942;27;20183;-71
2023/03/06 02:37:28;;;;;;;11.32;10.23;;;;;;;4.63;51.16;94303.13;5122288;27;20191;-71
2023/03/06 02:40:01;;;;;;;10.98;9.88;;;;;;;4.62;50.92;94307.00;5121631;27;20203;-71
2023/03/06 02:42:28;;;;;;;10.55;9.57;;;;;;;4.62;51.59;94298.00;5118138;28;20236;-71
2023/03/06 02:44:59;;;;;;;11.68;10.57;;;;;;;4.63;51.37;94307.78;5118361;28;20195;-71
2023/03/06 02:47:26;;;;;;;11.57;10.43;;;;;;;4.59;50.98;94305.72;5118397;28;20206;-71
2023/03/06 02:49:53;;;;;;;12.07;10.88;;;;;;;4.57;51.07;94304.44;5118887;28;20195;-71
2023/03/06 02:52:20;;;;;;;11.75;10.52;;;;;;;4.53;51.28;94301.59;5117962;28;20207;-71
2023/03/06 02:54:46;;;;;;;11.57;10.38;;;;;;;4.51;51.79;94301.13;5118256;28;20199;-71
2023/03/06 02:57:13;;;;;;;11.90;10.80;;;;;;;4.53;51.77;94298.84;5118786;28;20176;-72
2023/03/06 02:59:40;;;;;;;12.32;11.05;;;;;;;4.55;51.77;94302.06;5118746;28;20584;-71
2023/03/06 03:02:08;;;;;;;12.18;10.98;;;;;;;4.51;52.01;94308.53;5117833;28;20208;-72
2023/03/06 03:04:35;;;;;;;12.45;11.15;;;;;;;4.47;51.86;94302.94;5118118;28;20183;-72
2023/03/06 03:07:01;;;;;;;12.00;10.90;;;;;;;4.46;51.99;94298.59;5118443;28;20603;-72
2023/03/06 03:09:28;;;;;;;11.88;10.68;;;;;;;4.43;52.05;94296.53;5117526;28;20618;-72
2023/03/06 03:11:55;;;;;;;11.93;10.73;;;;;;;4.46;52.26;94303.25;5117872;28;20211;-72
2023/03/06 03:14:24;;;;;;;11.45;10.27;;;;;;;4.47;52.26;94302.94;5117467;28;20222;-72
2023/03/06 03:16:50;;;;;;;12.65;11.15;;;;;;;4.45;52.59;94307.13;5117707;28;20196;-72
2023/03/06 03:19:19;;;;;;;11.73;10.55;;;;;;;4.43;52.67;94304.72;5118563;28;20202;-72
2023/03/06 03:21:46;;;;;;;12.13;10.77;;;;;;;4.44;52.51;94303.59;5117692;28;20232;-72
2023/03/06 03:24:13;;;;;;;11.45;10.43;;;;;;;4.42;53.04;94303.13;5118546;28;20203;-74
2023/03/06 03:26:39;;;;;;;11.20;10.20;;;;;;;4.43;52.48;94302.00;5117475;28;20210;-72
2023/03/06 03:29:06;;;;;;;11.13;9.98;;;;;;;4.41;51.96;94301.53;5117297;28;20199;-72
2023/03/06 03:31:33;;;;;;;10.88;9.88;;;;;;;4.46;51.93;94295.84;5117308;28;20218;-72
2023/03/06 03:34:00;;;;;;;10.55;9.65;;;;;;;4.50;51.84;94302.28;5118550;28;20172;-72
2023/03/06 03:36:28;;;;;;;11.75;10.65;;;;;;;4.49;51.71;94302.59;5117436;28;20199;-72
2023/03/06 03:38:56;;;;;;;11.30;10.20;;;;;;;4.52;51.91;94296.47;5117193;28;20211;-73
2023/03/06 03:41:23;;;;;;;11.55;10.45;;;;;;;4.55;51.58;94304.00;5116975;28;20326;-72
2023/03/06 03:43:50;;;;;;;12.38;11.13;;;;;;;4.58;51.55;94308.78;5117102;28;20210;-71
2023/03/06 03:46:17;;;;;;;11.50;10.30;;;;;;;4.58;51.83;94309.59;5118147;28;20203;-71
2023/03/06 03:48:44;;;;;;;12.15;10.95;;;;;;;4.59;51.32;94307.66;5118017;28;20184;-71
2023/03/06 03:51:12;;;;;;;11.63;10.63;;;;;;;4.60;51.26;94306.50;5117059;28;20207;-71
2023/03/06 03:53:40;;;;;;;11.35;10.13;;;;;;;4.61;51.33;94316.31;5117313;28;20218;-71
2023/03/06 03:56:07;;;;;;;12.40;11.20;;;;;;;4.61;51.02;94316.31;5117837;28;20206;-71
2023/03/06 03:58:34;;;;;;;12.13;10.75;;;;;;;4.62;51.14;94317.13;5116965;28;20207;-71
2023/03/06 04:01:01;;;;;;;11.65;10.55;;;;;;;4.63;50.88;94324.19;5116717;28;20195;-71
2023/03/06 04:03:28;;;;;;;12.65;11.43;;;;;;;4.61;51.62;94324.50;5116058;28;20432;-72
2023/03/06 04:05:56;;;;;;;11.90;10.70;;;;;;;4.60;51.50;94322.91;5116861;28;20188;-71
2023/03/06 04:08:24;;;;;;;12.05;10.85;;;;;;;4.61;51.54;94329.16;5116931;28;20200;-71
2023/03/06 04:10:52;;;;;;;12.60;11.25;;;;;;;4.61;51.44;94321.75;5116532;28;20211;-71
2023/03/06 04:13:20;;;;;;;12.02;10.85;;;;;;;4.62;51.60;94331.56;5117456;28;20176;-71
2023/03/06 04:15:48;;;;;;;12.32;11.20;;;;;;;4.58;51.85;94327.91;5117484;28;20259;-71
2023/03/06 04:18:15;;;;;;;12.02;10.90;;;;;;;4.49;52.49;94327.16;5116717;28;20198;-71
2023/03/06 04:20:42;;;;;;;12.75;11.23;;;;;;;4.44;53.00;94330.91;5116964;28;20187;-71
2023/03/06 04:23:08;;;;;;;12.02;10.82;;;;;;;4.42;52.74;94335.09;5116328;28;20630;-69
2023/03/06 04:25:35;;;;;;;12.90;11.48;;;;;;;4.37;53.40;94335.28;5116754;28;20195;-71
2023/03/06 04:28:04;;;;;;;12.57;11.30;;;;;;;4.34;53.45;94337.53;5116264;28;20191;-71
2023/03/06 04:30:31;;;;;;;13.15;11.85;;;;;;;4.34;53.40;94342.19;5116860;28;20208;-71
2023/03/06 04:32:58;;;;;;;13.50;12.13;;;;;;;4.33;53.36;94341.41;5116335;28;20595;-71
2023/03/06 04:35:25;;;;;;;13.07;11.75;;;;;;;4.34;53.71;94340.28;5117074;28;20200;-71
2023/03/06 04:37:52;;;;;;;14.07;11.98;;;;;;;4.38;54.08;94345.88;5117060;28;20270;-71
2023/03/06 04:40:22;;;;;;;13.05;11.65;;;;;;;4.39;53.49;94339.28;5116161;28;20631;-72
2023/03/06 04:42:49;;;;;;;12.90;11.50;;;;;;;4.41;53.65;94341.69;5132911;27;20257;-72
2023/03/06 04:45:17;;;;;;;12.15;10.95;;;;;;;4.42;53.67;94333.16;5120016;27;20199;-71
2023/03/06 04:47:44;;;;;;;12.85;11.50;;;;;;;4.47;53.42;94341.16;5137491;27;20180;-71
2023/03/06 04:50:12;;;;;;;13.80;11.65;;;;;;;4.47;53.70;94346.63;5118794;27;20187;-71
2023/03/06 04:52:39;;;;;;;11.15;10.05;;;;;;;4.44;53.85;94330.91;5119152;27;20198;-71
2023/03/06 04:55:07;;;;;;;12.90;11.55;;;;;;;4.43;53.80;94342.97;5119571;27;20263;-71
2023/03/06 04:57:34;;;;;;;13.60;12.20;;;;;;;4.46;54.79;94341.47;5118784;27;20438;-70
2023/03/06 05:00:03;;;;;;;19.08;15.52;;;;;;;4.44;54.60;94350.00;5119163;27;20191;-70
2023/03/06 05:02:31;;;;;;;16.10;14.18;;;;;;;4.42;54.94;94346.81;5136826;27;20209;-72
2023/03/06 05:04:58;;;;;;;18.20;14.02;;;;;;;4.38;55.13;94340.41;5137536;27;20514;-65
2023/03/06 05:07:25;;;;;;;15.77;13.30;;;;;;;4.31;55.01;94340.94;5119360;27;20194;-70
2023/03/06 05:09:51;;;;;;;17.92;15.80;;;;;;;4.32;55.41;94355.38;5119137;27;20202;-70
2023/03/06 05:12:18;;;;;;;18.88;16.98;;;;;;;4.25;56.03;94349.66;5119114;27;20229;-70
2023/03/06 05:14:45;;;;;;;19.88;18.00;;;;;;;4.19;55.94;94349.03;5118735;27;20206;-70
2023/03/06 05:17:12;;;;;;;20.98;18.73;;;;;;;4.18;55.66;94360.31;5118788;27;20209;-70
2023/03/06 05:19:40;;;;;;;23.33;20.13;;;;;;;4.20;55.98;94352.56;5136566;27;20191;-72
2023/03/06 05:22:07;;;;;;;26.48;21.33;;;;;;;4.18;55.49;94358.38;5119528;27;20203;-71
2023/03/06 05:24:34;;;;;;;25.27;20.58;;;;;;;4.15;56.40;94350.84;5138192;27;20586;-70
2023/03/06 05:27:01;;;;;;;20.38;18.20;;;;;;;4.14;56.56;94351.16;5137836;27;20202;-72
2023/03/06 05:29:27;;;;;;;19.70;17.80;;;;;;;4.14;56.57;94354.69;5121115;27;20198;-71
2023/03/06 05:31:54;;;;;;;19.35;17.45;;;;;;;4.16;56.30;94357.09;5139033;27;20581;-71
2023/03/06 05:34:21;;;;;;;17.95;16.35;;;;;;;4.15;56.50;94359.03;5138228;27;20546;-71
2023/03/06 05:36:50;;;;;;;18.48;16.75;;;;;;;4.14;56.97;94356.59;5119408;27;20198;-71
2023/03/06 05:39:16;;;;;;;18.52;14.77;;;;;;;4.12;57.06;94351.47;5120081;27;20190;-71
2023/03/06 05:41:43;;;;;;;16.13;14.50;;;;;;;4.12;56.75;94350.69;5136501;27;20439;-69
2023/03/06 05:44:10;;;;;;;14.25;12.82;;;;;;;4.19;56.53;94368.16;5120310;27;20213;-69
2023/03/06 05:46:38;;;;;;;15.65;14.05;;;;;;;4.19;56.72;94370.09;5138358;27;20183;-69
2023/03/06 05:49:04;;;;;;;20.17;15.27;;;;;;;4.26;57.09;94376.63;5121066;27;20206;-69
2023/03/06 05:51:31;;;;;;;16.40;14.18;;;;;;;4.30;56.61;94374.03;5118036;27;20214;-69
2023/03/06 05:53:59;;;;;;;18.27;16.48;;;;;;;4.30;56.81;94371.31;5119126;27;20210;-74
2023/03/06 05:56:26;;;;;;;17.00;15.40;;;;;;;4.35;56.30;94380.09;5118332;28;20202;-73
2023/03/06 05:58:53;;;;;;;17.08;15.38;;;;;;;4.35;55.92;94380.09;5118118;28;20203;-73
2023/03/06 06:01:20;;;;;;;16.80;14.98;;;;;;;4.34;56.23;94383.94;5118941;28;20641;-72
2023/03/06 06:03:47;;;;;;;16.23;14.70;;;;;;;4.33;56.44;94385.09;5122053;28;20199;-72
2023/03/06 06:06:15;;;;;;;16.50;14.98;;;;;;;4.30;56.16;94380.28;5121911;28;20191;-73
2023/03/06 06:08:42;;;;;;;16.40;14.88;;;;;;;4.28;56.29;94387.19;5140370;28;20183;-72
2023/03/06 06:11:12;;;;;;;16.20;14.70;;;;;;;4.35;56.23;94391.00;5140237;28;20217;-72
2023/03/06 06:13:39;;;;;;;15.73;14.13;;;;;;;4.42;56.29;94400.63;5140065;28;20191;-72
2023/03/06 06:16:07;;;;;;;16.08;14.13;;;;;;;4.46;55.96;94399.63;5121628;28;20638;-72
2023/03/06 06:18:34;;;;;;;16.33;14.65;;;;;;;4.49;56.38;94400.91;5121471;28;20199;-72
2023/03/06 06:21:04;;;;;;;16.30;14.65;;;;;;;4.52;55.13;94400.25;5121898;28;20195;-72
2023/03/06 06:23:32;;;;;;;16.90;15.30;;;;;;;4.55;55.70;94403.13;5122175;28;20262;-72
2023/03/06 06:25:59;;;;;;;15.75;14.35;;;;;;;4.62;55.24;94410.78;5122711;28;20206;-72
2023/03/06 06:28:28;;;;;;;15.80;14.35;;;;;;;4.59;55.29;94401.31;5122311;28;20202;-72
2023/03/06 06:30:55;;;;;;;16.85;15.18;;;;;;;4.56;55.72;94401.19;5139734;28;20178;-72
2023/03/06 06:33:22;;;;;;;16.05;14.45;;;;;;;4.56;55.66;94401.97;5121006;28;20592;-71
2023/03/06 06:35:49;;;;;;;15.75;13.98;;;;;;;4.58;55.82;94404.38;5117551;28;20206;-72
2023/03/06 06:38:16;;;;;;;15.90;14.20;;;;;;;4.55;55.82;94403.13;5117706;28;20195;-73
2023/03/06 06:40:43;;;;;;;16.25;14.38;;;;;;;4.54;55.32;94406.19;5117853;28;20209;-73
2023/03/06 06:43:09;;;;;;;15.90;14.25;;;;;;;4.58;55.52;94407.13;5135557;28;20237;-73
2023/03/06 06:45:38;;;;;;;16.15;14.60;;;;;;;4.63;55.69;94408.84;5136105;28;20210;-73
2023/03/06 06:48:05;;;;;;;15.50;14.00;;;;;;;4.75;55.76;94417.13;5117749;28;20191;-72
2023/03/06 06:50:32;;;;;;;17.50;15.50;;;;;;;4.75;55.03;94422.56;5117262;28;20198;-73
2023/03/06 06:52:59;;;;;;;16.85;14.85;;;;;;;4.75;55.67;94415.19;5117373;28;20219;-73
2023/03/06 06:55:25;;;;;;;16.08;14.57;;;;;;;4.75;55.24;94417.13;5117399;28;20199;-73
2023/03/06 06:57:52;;;;;;;16.85;15.15;;;;;;;4.80;55.63;94414.22;5117674;28;20277;-73
2023/03/06 07:00:20;;;;;;;15.95;14.35;;;;;;;4.93;55.70;94421.31;5135487;28;20195;-73
2023/03/06 07:02:50;;;;;;;19.15;16.10;;;;;;;5.10;56.21;94425.06;5117285;28;20194;-73
2023/03/06 07:05:18;;;;;;;19.80;15.20;;;;;;;5.20;55.57;94420.00;5117951;28;20289;-73
2023/03/06 07:07:45;;;;;;;16.98;15.30;;;;;;;5.24;55.28;94426.41;5135662;28;20229;-72
2023/03/06 07:10:14;;;;;;;18.30;16.08;;;;;;;5.27;55.67;94417.53;5118288;28;20191;-72
2023/03/06 07:12:41;;;;;;;17.95;16.08;;;;;;;5.30;54.92;94419.59;5122274;27;20549;-72
2023/03/06 07:15:09;;;;;;;17.65;15.95;;;;;;;5.28;54.80;94421.84;5125445;27;20238;-72
2023/03/06 07:17:35;;;;;;;17.35;15.55;;;;;;;5.32;54.37;94420.06;5144789;27;20214;-72
2023/03/06 07:20:07;;;;;;;16.98;15.32;;;;;;;5.34;54.23;94419.72;5143362;27;20187;-72
2023/03/06 07:22:33;;;;;;;17.75;16.08;;;;;;;5.42;54.51;94427.06;5143115;27;20237;-72
2023/03/06 07:25:02;;;;;;;17.17;15.48;;;;;;;5.45;53.58;94431.06;5125919;27;20201;-72
2023/03/06 07:27:30;;;;;;;16.60;15.00;;;;;;;5.47;54.23;94424.09;5126711;27;20222;-73
2023/03/06 07:29:56;;;;;;;17.02;15.52;;;;;;;5.48;53.51;94425.72;5126732;27;20189;-73
2023/03/06 07:32:24;;;;;;;16.58;15.07;;;;;;;5.50;53.65;94426.16;5123936;27;20309;-72
2023/03/06 07:34:51;;;;;;;17.13;15.52;;;;;;;5.58;54.36;94426.41;5124512;27;20206;-72
2023/03/06 07:37:19;;;;;;;19.65;17.23;;;;;;;5.67;54.46;94427.94;5125053;27;20533;-72
2023/03/06 07:39:46;;;;;;;16.40;14.90;;;;;;;5.66;53.84;94423.59;5124458;27;20272;-72
2023/03/06 07:42:13;;;;;;;17.40;15.73;;;;;;;5.71;53.66;94426.13;5121073;28;20227;-72
2023/03/06 07:44:41;;;;;;;18.15;16.23;;;;;;;5.75;53.75;94424.31;5122740;28;20517;-72
2023/03/06 07:47:07;;;;;;;16.73;15.13;;;;;;;5.83;54.30;94427.28;5121636;28;20195;-72
2023/03/06 07:49:34;;;;;;;16.95;15.43;;;;;;;5.89;53.45;94428.69;5122585;28;20189;-72
2023/03/06 07:52:01;;;;;;;17.35;15.63;;;;;;;5.90;53.31;94424.81;5121736;28;20212;-72
2023/03/06 07:54:31;;;;;;;17.63;15.93;;;;;;;5.99;53.20;94431.81;5122199;28;20200;-72
2023/03/06 07:56:58;;;;;;;17.70;16.00;;;;;;;6.00;53.43;94427.94;5121262;28;20200;-73
2023/03/06 07:59:25;;;;;;;15.88;14.45;;;;;;;6.08;53.94;94425.44;5122718;28;20183;-72
2023/03/06 08:01:54;;;;;;;14.57;13.23;;;;;;;6.09;53.27;94425.09;5122221;28;20213;-72
2023/03/06 08:04:20;;;;;;;15.73;14.23;;;;;;;6.12;53.65;94426.34;5121826;28;20196;-73
2023/03/06 08:06:47;;;;;;;16.33;14.68;;;;;;;6.17;52.59;94426.13;5122227;28;20230;-72
2023/03/06 08:09:14;;;;;;;16.10;14.60;;;;;;;6.23;53.63;94428.31;5121270;28;20278;-72
2023/03/06 08:11:44;;;;;;;18.42;16.63;;;;;;;6.30;53.27;94425.00;5121687;28;20216;-72
2023/03/06 08:14:10;;;;;;;17.42;15.82;;;;;;;6.39;53.35;94431.19;5121258;28;20283;-72
2023/03/06 08:16:37;;;;;;;16.23;14.63;;;;;;;6.46;52.91;94425.94;5121084;28;20194;-72
2023/03/06 08:19:04;;;;;;;17.63;15.80;;;;;;;6.51;52.71;94435.88;5121079;28;20268;-72
2023/03/06 08:21:31;;;;;;;15.18;13.80;;;;;;;6.52;51.99;94423.75;5120978;28;20253;-72
2023/03/06 08:23:58;;;;;;;15.25;13.95;;;;;;;6.58;52.25;94416.13;5122206;28;20196;-72
2023/03/06 08:26:26;;;;;;;15.35;13.75;;;;;;;6.65;51.61;94417.13;5121434;28;20192;-73
2023/03/06 08:28:55;;;;;;;15.15;13.63;;;;;;;6.84;51.57;94423.97;5122620;28;20195;-72
2023/03/06 08:31:27;;;;;;;15.07;13.68;;;;;;;6.91;52.80;94414.03;5122471;28;20219;-72
2023/03/06 08:33:54;;;;;;;14.95;13.45;;;;;;;7.07;51.80;94418.78;5122421;28;20195;-72
2023/03/06 08:36:21;;;;;;;14.57;13.13;;;;;;;7.22;52.55;94420.78;5122764;28;20180;-72
2023/03/06 08:38:48;;;;;;;15.32;13.80;;;;;;;7.34;51.33;94420.78;5121247;28;20203;-72
2023/03/06 08:41:15;;;;;;;16.95;15.38;;;;;;;7.30;50.63;94419.06;5121029;28;20239;-72
2023/03/06 08:43:42;;;;;;;16.50;15.00;;;;;;;7.31;50.55;94413.22;5120608;28;20202;-72
2023/03/06 08:46:11;;;;;;;16.00;14.48;;;;;;;7.35;51.16;94419.63;5122188;28;20218;-72
2023/03/06 08:48:38;;;;;;;14.90;13.40;;;;;;;7.54;50.12;94426.41;5120498;28;20187;-72
2023/03/06 08:51:05;;;;;;;14.13;12.82;;;;;;;7.63;50.35;94418.84;5120547;28;20199;-73
2023/03/06 08:53:32;;;;;;;14.65;13.07;;;;;;;7.76;50.23;94420.34;5120800;28;20225;-73
2023/03/06 08:56:00;;;;;;;15.50;13.90;;;;;;;7.91;49.90;94410.56;5120987;28;20198;-73
2023/03/06 08:58:27;;;;;;;14.13;12.70;;;;;;;8.01;49.97;94412.78;5120196;28;20584;-72
2023/03/06 09:00:55;;;;;;;13.82;12.40;;;;;;;8.16;48.96;94401.00;5120421;28;20590;-71
2023/03/06 09:03:23;;;;;;;14.20;12.80;;;;;;;8.28;47.95;94402.09;5119689;28;20196;-72
2023/03/06 09:05:50;;;;;;;15.32;13.73;;;;;;;8.32;47.52;94405.75;5119384;28;20215;-72
2023/03/06 09:08:17;;;;;;;15.65;14.15;;;;;;;8.34;48.67;94408.91;5120811;28;20193;-72
2023/03/06 09:10:46;;;;;;;16.17;14.57;;;;;;;8.41;48.62;94403.63;5119882;28;20215;-72
2023/03/06 09:13:13;;;;;;;18.25;16.35;;;;;;;8.37;47.41;94403.53;5120954;28;20220;-72
2023/03/06 09:15:40;;;;;;;22.42;20.17;;;;;;;8.35;48.04;94410.50;5121561;28;20175;-72
2023/03/06 09:18:08;;;;;;;18.98;17.20;;;;;;;8.28;47.95;94411.16;5120823;28;20555;-72
2023/03/06 09:20:36;;;;;;;17.42;15.73;;;;;;;8.26;48.11;94391.47;5120331;28;20187;-72
2023/03/06 09:23:02;;;;;;;16.60;14.93;;;;;;;8.38;49.28;94399.63;5120827;28;20199;-71
2023/03/06 09:25:29;;;;;;;16.50;14.85;;;;;;;8.58;49.08;94399.72;5119927;28;20596;-71
2023/03/06 09:27:56;;;;;;;15.95;14.45;;;;;;;8.74;47.83;94396.94;5120613;28;20199;-72
2023/03/06 09:30:23;;;;;;;15.38;13.88;;;;;;;8.86;47.57;94389.41;5120667;28;20623;-72
2023/03/06 09:32:50;;;;;;;15.77;14.27;;;;;;;9.01;47.31;94398.75;5119097;28;20219;-72
2023/03/06 09:35:17;;;;;;;15.55;13.93;;;;;;;9.11;48.07;94400.13;5119442;28;20196;-72
2023/03/06 09:37:46;;;;;;;15.90;14.30;;;;;;;9.16;47.32;94388.88;5119555;28;20244;-72
2023/03/06 09:40:17;;;;;;;14.77;13.48;;;;;;;9.20;46.15;94398.00;5119527;28;20203;-71
2023/03/06 09:42:43;;;;;;;15.70;14.10;;;;;;;9.24;47.34;94390.59;5135568;27;20565;-73
2023/03/06 09:45:11;;;;;;;15.15;13.68;;;;;;;9.36;46.79;94392.41;5123259;28;20209;-72
2023/03/06 09:47:45;;;;;;;15.07;13.57;;;;;;;9.49;46.89;94382.06;5123755;27;20195;-72
2023/03/06 09:50:30;;;;;;;15.18;13.77;;;;;;;9.53;46.11;94374.69;5123136;28;20199;-72
2023/03/06 09:53:29;;;;;;;16.30;13.73;;;;;;;9.62;46.50;94376.06;5123163;27;20233;-72
2023/03/06 09:56:01;;;;;;;16.77;13.52;;;;;;;9.89;47.32;94382.47;5141530;28;20194;-72
2023/03/06 09:58:29;;;;;;;16.52;14.50;;;;;;;9.95;45.40;94371.94;5123427;28;20199;-72
2023/03/06 10:01:01;;;;;;;14.90;13.52;;;;;;;10.05;45.77;94376.03;5142273;28;20201;-73
2023/03/06 10:03:31;;;;;;;15.93;13.82;;;;;;;9.89;45.25;94367.91;5123836;28;20267;-72
2023/03/06 10:06:02;;;;;;;15.00;13.55;;;;;;;9.93;45.97;94368.75;5123433;28;20209;-72
2023/03/06 10:08:38;;;;;;;15.35;13.85;;;;;;;10.09;45.79;94372.22;5121802;28;20191;-72
2023/03/06 10:11:07;;;;;;;15.90;14.23;;;;;;;10.25;45.59;94372.13;5140293;28;20209;-72
2023/03/06 10:13:39;;;;;;;15.95;14.45;;;;;;;10.40;46.14;94367.63;5122484;28;20223;-72
2023/03/06 10:16:23;;;;;;;15.95;14.35;;;;;;;10.56;46.15;94360.00;5139938;28;20182;-72
2023/03/06 10:18:50;;;;;;;15.77;13.88;;;;;;;10.65;45.00;94348.72;5121770;28;20202;-72
2023/03/06 10:21:30;;;;;;;18.40;15.00;;;;;;;10.70;44.88;94355.88;5121108;28;20586;-72
2023/03/06 10:24:05;;;;;;;15.68;14.05;;;;;;;10.99;44.31;94359.84;5120958;28;20210;-72
2023/03/06 10:26:36;;;;;;;11.45;10.00;;;;;;;11.14;42.07;94353.34;5121923;28;20194;-72
2023/03/06 10:29:21;;;;;;;8.48;7.55;;;;;;;11.37;42.72;94353.28;5122269;28;20227;-72
2023/03/06 10:31:52;;;;;;;9.18;8.23;;;;;;;11.55;42.82;94342.47;5122790;28;20183;-72
2023/03/06 10:34:21;;;;;;;7.47;6.78;;;;;;;11.69;41.88;94350.91;5123252;28;20315;-73
2023/03/06 10:36:48;;;;;;;8.73;7.82;;;;;;;11.60;41.57;94353.16;5123885;28;20198;-72
2023/03/06 10:39:18;;;;;;;8.98;7.63;;;;;;;11.56;41.87;94346.81;5123000;28;20194;-72
2023/03/06 10:41:47;;;;;;;8.18;7.38;;;;;;;11.66;41.41;94340.63;5122769;28;20219;-72
2023/03/06 10:44:25;;;;;;;8.60;7.75;;;;;;;11.78;42.96;94337.59;5123887;28;20213;-72
2023/03/06 10:46:53;;;;;;;8.80;7.90;;;;;;;11.82;42.10;94327.34;5123691;28;20535;-72
2023/03/06 10:49:26;;;;;;;8.52;7.63;;;;;;;11.82;42.18;94329.31;5145393;27;20187;-71
2023/03/06 10:51:58;;;;;;;8.20;7.40;;;;;;;11.79;40.14;94327.31;5127582;27;20195;-72
2023/03/06 10:54:27;;;;;;;7.53;6.82;;;;;;;11.69;40.51;94326.06;5127312;27;20218;-72
2023/03/06 10:56:54;;;;;;;8.00;7.20;;;;;;;11.69;41.53;94317.75;5126296;27;20203;-72
2023/03/06 10:59:24;;;;;;;7.18;6.30;;;;;;;11.78;41.40;94321.00;5128635;27;20199;-72
2023/03/06 11:01:52;;;;;;;7.70;6.90;;;;;;;11.77;41.74;94302.06;5145605;27;20224;-72
2023/03/06 11:04:27;;;;;;;9.13;6.65;;;;;;;11.74;41.73;94308.34;5127769;27;20194;-72
2023/03/06 11:07:12;;;;;;;16.85;12.77;;;;;;;11.58;41.64;94314.06;5127817;27;20255;-72
2023/03/06 11:09:41;;;;;;;8.05;7.40;;;;;;;11.51;40.53;94323.09;5146154;27;20198;-72
2023/03/06 11:12:26;;;;;;;8.43;7.28;;;;;;;11.31;40.67;94300.34;5128848;27;20195;-72
2023/03/06 11:15:27;;;;;;;7.57;6.88;;;;;;;11.25;41.25;94299.09;5124638;27;20194;-71
2023/03/06 11:17:59;;;;;;;7.38;6.75;;;;;;;11.45;40.92;94290.66;5065561;28;20197;-72
2023/03/06 11:20:29;;;;;;;7.97;7.20;;;;;;;11.81;41.96;94280.78;5064552;28;20205;-71
2023/03/06 11:22:59;;;;;;;7.55;6.78;;;;;;;11.91;40.95;94271.00;5065075;28;20283;-72
2023/03/06 11:25:33;;;;;;;9.43;7.80;;;;;;;11.87;41.78;94278.47;5065342;28;20669;-73
2023/03/06 11:28:03;;;;;;;6.97;6.03;;;;;;;11.89;41.61;94265.09;5080104;28;20204;-71
2023/03/06 11:30:35;;;;;;;8.05;6.43;;;;;;;11.91;41.19;94262.72;5062638;28;20641;-71
2023/03/06 11:33:06;;;;;;;6.80;6.20;;;;;;;11.97;41.67;94256.47;5079843;28;20213;-72